createdAt,value
2022-09-23T00:02:32.746Z,97.95
2022-09-23T00:05:18.678Z,97.74
2022-09-23T00:08:06.330Z,97.84
2022-09-23T00:10:51.892Z,97.47
2022-09-23T00:13:38.327Z,98.05
2022-09-23T00:16:28.811Z,98.48
2022-09-23T00:19:14.249Z,98.21
2022-09-23T00:21:59.255Z,97.77
2022-09-23T00:24:44.604Z,97.76
2022-09-23T00:27:30.194Z,97.93
2022-09-23T00:30:15.461Z,98.09
2022-09-23T00:33:00.897Z,97.29
2022-09-23T00:35:46.364Z,96.98
2022-09-23T00:38:32.216Z,95.86
2022-09-23T00:41:17.901Z,96.25
2022-09-23T00:44:41.266Z,96.08
2022-09-23T00:47:34.431Z,96.42
2022-09-23T00:50:33.810Z,96.36
2022-09-23T00:53:22.696Z,96.42
2022-09-23T00:56:11.161Z,96.17
2022-09-23T00:58:56.590Z,96.34
2022-09-23T01:01:44.120Z,96.21
2022-09-23T01:04:30.151Z,96.38
2022-09-23T01:07:15.415Z,95.92
2022-09-23T01:10:01.656Z,95.86
2022-09-23T01:13:13.654Z,96.20
2022-09-23T01:16:08.300Z,95.66
2022-09-23T01:19:06.232Z,95.78
2022-09-23T01:22:32.887Z,95.58
2022-09-23T01:25:49.797Z,95.87
2022-09-23T01:29:14.317Z,96.35
2022-09-23T01:32:17.889Z,95.99
2022-09-23T01:35:10.230Z,95.90
2022-09-23T01:38:10.642Z,95.92
2022-09-23T01:40:59.036Z,96.64
2022-09-23T01:44:08.704Z,96.12
2022-09-23T01:46:57.850Z,95.90
2022-09-23T01:49:59.104Z,95.80
2022-09-23T01:52:46.916Z,95.79
2022-09-23T01:55:36.349Z,96.38
2022-09-23T01:58:35.376Z,95.43
2022-09-23T02:01:32.937Z,95.26
2022-09-23T02:04:26.854Z,96.02
2022-09-23T02:07:25.138Z,95.95
2022-09-23T02:10:25.738Z,96.08
2022-09-23T02:13:21.962Z,96.25
2022-09-23T02:16:33.069Z,96.50
2022-09-23T02:19:37.227Z,96.93
2022-09-23T02:22:34.751Z,96.29
2022-09-23T02:25:22.064Z,96.84
2022-09-23T02:28:39.419Z,96.88
2022-09-23T02:31:33.996Z,97.07
2022-09-23T02:34:49.615Z,97.21
2022-09-23T02:37:46.603Z,97.01
2022-09-23T02:40:40.782Z,97.46
2022-09-23T02:43:47.713Z,97.22
2022-09-23T02:46:33.994Z,96.61
2022-09-23T02:49:19.332Z,96.27
2022-09-23T02:52:05.778Z,96.34
2022-09-23T02:54:52.514Z,96.13
2022-09-23T02:57:38.087Z,96.11
2022-09-23T03:00:23.855Z,95.65
2022-09-23T03:03:34.973Z,96.04
2022-09-23T03:06:19.960Z,96.07
2022-09-23T03:09:33.321Z,96.64
2022-09-23T03:12:42.901Z,96.02
2022-09-23T03:15:51.666Z,95.35
2022-09-23T03:18:59.350Z,95.24
2022-09-23T03:21:53.116Z,95.35
2022-09-23T03:24:42.413Z,95.18
2022-09-23T03:27:32.365Z,96.00
2022-09-23T03:30:18.195Z,96.33
2022-09-23T03:33:05.872Z,96.15
2022-09-23T03:36:05.207Z,95.70
2022-09-23T03:38:54.346Z,95.92
2022-09-23T03:41:47.454Z,96.26
2022-09-23T03:44:36.837Z,96.07
2022-09-23T03:47:22.966Z,96.42
2022-09-23T03:50:08.713Z,96.12
2022-09-23T03:52:53.896Z,95.88
2022-09-23T03:55:38.982Z,96.10
2022-09-23T03:58:24.434Z,96.13
2022-09-23T04:01:09.628Z,96.42
2022-09-23T04:03:54.859Z,96.54
2022-09-23T04:06:39.793Z,96.14
2022-09-23T04:09:24.732Z,95.97
2022-09-23T04:12:14.860Z,96.93
2022-09-23T04:14:59.947Z,97.27
2022-09-23T04:17:44.964Z,96.73
2022-09-23T04:20:30.441Z,96.26
2022-09-23T04:23:15.843Z,97.04
2022-09-23T04:26:01.253Z,97.02
2022-09-23T04:28:46.450Z,97.10
2022-09-23T04:31:32.823Z,97.39
2022-09-23T04:34:18.790Z,97.35
2022-09-23T04:37:04.129Z,97.27
2022-09-23T04:39:49.416Z,96.92
2022-09-23T04:42:34.791Z,96.86
2022-09-23T04:45:20.057Z,96.95
2022-09-23T04:48:05.346Z,97.31
2022-09-23T04:50:50.287Z,97.09
2022-09-23T04:53:36.703Z,97.43
2022-09-23T04:56:24.610Z,98.17
2022-09-23T04:59:09.893Z,98.21
2022-09-23T05:01:55.285Z,97.96
2022-09-23T05:04:40.480Z,97.67
2022-09-23T05:07:25.767Z,98.65
2022-09-23T05:10:11.533Z,98.72
2022-09-23T05:12:58.346Z,99.28
2022-09-23T05:15:44.140Z,99.73
2022-09-23T05:18:35.191Z,99.94
2022-09-23T05:21:24.335Z,100.00
2022-09-23T05:24:09.537Z,100.00
2022-09-23T05:26:57.880Z,100.00
2022-09-23T05:29:42.876Z,99.96
2022-09-23T05:32:28.423Z,100.00
2022-09-23T05:35:13.940Z,99.76
2022-09-23T05:37:59.079Z,99.34
2022-09-23T05:40:44.550Z,99.25
2022-09-23T05:43:31.689Z,99.39
2022-09-23T05:46:19.976Z,98.71
2022-09-23T05:49:05.715Z,98.31
2022-09-23T05:51:51.156Z,98.07
2022-09-23T05:54:36.698Z,97.67
2022-09-23T05:57:24.823Z,97.76
2022-09-23T06:00:11.009Z,98.09
2022-09-23T06:02:59.568Z,97.76
2022-09-23T06:05:45.274Z,97.58
2022-09-23T06:08:30.838Z,97.33
2022-09-23T06:11:16.220Z,96.64
2022-09-23T06:14:01.453Z,97.37
2022-09-23T06:16:47.579Z,96.83
2022-09-23T06:19:32.459Z,96.83
2022-09-23T06:22:17.857Z,96.12
2022-09-23T06:25:03.762Z,96.46
2022-09-23T06:27:55.645Z,95.11
2022-09-23T06:30:40.711Z,92.96
2022-09-23T06:33:35.785Z,91.48
2022-09-23T06:36:37.517Z,91.57
2022-09-23T06:39:27.258Z,90.33
2022-09-23T06:42:12.366Z,89.65
2022-09-23T06:44:57.420Z,88.94
2022-09-23T06:47:43.192Z,86.10
2022-09-23T06:50:28.420Z,84.88
2022-09-23T06:53:13.774Z,84.00
2022-09-23T06:56:00.663Z,83.90
2022-09-23T06:58:46.478Z,83.41
2022-09-23T07:01:32.173Z,82.88
2022-09-23T07:04:17.425Z,81.70
2022-09-23T07:07:02.521Z,83.24
2022-09-23T07:09:50.516Z,82.98
2022-09-23T07:12:35.831Z,83.13
2022-09-23T07:15:21.290Z,82.42
2022-09-23T07:18:06.349Z,82.34
2022-09-23T07:20:53.341Z,82.49
2022-09-23T07:23:38.866Z,81.67
2022-09-23T07:26:25.319Z,80.06
2022-09-23T07:29:13.114Z,79.60
2022-09-23T07:32:10.890Z,77.42
2022-09-23T07:34:59.222Z,75.65
2022-09-23T07:37:44.424Z,74.94
2022-09-23T07:40:29.685Z,74.92
2022-09-23T07:43:15.442Z,74.64
2022-09-23T07:46:02.211Z,72.22
2022-09-23T07:48:47.702Z,70.42
2022-09-23T07:51:37.104Z,69.09
2022-09-23T07:54:22.359Z,69.70
2022-09-23T07:57:07.788Z,70.59
2022-09-23T07:59:53.139Z,69.86
2022-09-23T08:02:38.854Z,67.58
2022-09-23T08:05:25.980Z,67.80
2022-09-23T08:08:11.377Z,69.27
2022-09-23T08:11:03.416Z,69.10
2022-09-23T08:13:48.482Z,67.84
2022-09-23T08:16:35.088Z,67.46
2022-09-23T08:19:21.209Z,67.47
2022-09-23T08:22:06.392Z,65.19
2022-09-23T08:24:52.613Z,66.08
2022-09-23T08:27:39.812Z,66.75
2022-09-23T08:30:25.367Z,66.86
2022-09-23T08:33:14.161Z,66.27
2022-09-23T08:36:03.150Z,66.13
2022-09-23T08:38:50.884Z,64.70
2022-09-23T08:41:43.588Z,62.63
2022-09-23T08:44:49.341Z,64.91
2022-09-23T08:47:50.502Z,66.04
2022-09-23T08:51:17.496Z,65.81
2022-09-23T08:54:02.923Z,65.64
2022-09-23T08:56:51.109Z,66.88
2022-09-23T08:59:44.299Z,65.91
2022-09-23T09:02:33.102Z,66.99
2022-09-23T09:05:25.612Z,66.08
2022-09-23T09:08:12.143Z,66.44
2022-09-23T09:10:58.343Z,67.16
2022-09-23T09:14:17.348Z,68.75
2022-09-23T09:17:19.357Z,69.33
2022-09-23T09:20:24.277Z,69.79
2022-09-23T09:23:24.166Z,69.18
2022-09-23T09:26:21.592Z,68.03
2022-09-23T09:29:38.224Z,69.26
2022-09-23T09:32:41.260Z,70.74
2022-09-23T09:35:29.367Z,70.67
2022-09-23T09:38:14.250Z,68.46
2022-09-23T09:41:09.009Z,68.03
2022-09-23T09:43:54.512Z,69.53
2022-09-23T09:46:51.720Z,69.44
2022-09-23T09:49:46.118Z,68.36
2022-09-23T09:52:31.556Z,67.51
2022-09-23T09:55:22.637Z,66.46
2022-09-23T09:58:13.369Z,66.66
2022-09-23T10:00:59.449Z,66.67
2022-09-23T10:03:56.886Z,68.22
2022-09-23T10:06:43.490Z,68.19
2022-09-23T10:09:34.537Z,67.91
2022-09-23T10:12:22.043Z,66.55
2022-09-23T10:15:27.011Z,68.16
2022-09-23T10:18:19.806Z,66.18
2022-09-23T10:21:14.157Z,67.77
2022-09-23T10:24:00.517Z,67.01
2022-09-23T10:26:55.721Z,67.82
2022-09-23T10:29:48.509Z,65.77
2022-09-23T10:32:35.467Z,66.72
2022-09-23T10:35:22.958Z,66.54
2022-09-23T10:38:10.251Z,66.81
2022-09-23T10:40:56.546Z,64.58
2022-09-23T10:44:03.860Z,65.42
2022-09-23T10:47:23.116Z,66.69
2022-09-23T10:50:19.704Z,63.89
2022-09-23T10:53:26.880Z,65.74
2022-09-23T10:56:35.983Z,64.73
2022-09-23T10:59:24.066Z,63.87
2022-09-23T11:02:35.812Z,65.90
2022-09-23T11:06:03.390Z,64.65
2022-09-23T11:08:58.656Z,64.36
2022-09-23T11:12:31.294Z,61.76
2022-09-23T11:15:25.508Z,61.87
2022-09-23T11:18:24.982Z,62.11
2022-09-23T11:21:38.370Z,62.75
2022-09-23T11:24:43.857Z,63.03
2022-09-23T11:27:58.418Z,63.34
2022-09-23T11:30:59.275Z,63.01
2022-09-23T11:34:03.652Z,62.07
2022-09-23T11:37:01.492Z,63.96
2022-09-23T11:40:15.268Z,63.57
2022-09-23T11:43:17.760Z,62.74
2022-09-23T11:46:23.289Z,60.34
2022-09-23T11:49:26.465Z,60.49
2022-09-23T11:52:33.710Z,62.19
2022-09-23T11:55:25.604Z,59.65
2022-09-23T11:58:25.402Z,61.56
2022-09-23T12:01:34.860Z,62.74
2022-09-23T12:04:31.415Z,61.28
2022-09-23T12:07:22.423Z,60.24
2022-09-23T12:10:09.164Z,62.22
2022-09-23T12:13:06.579Z,63.62
2022-09-23T12:15:58.723Z,60.99
2022-09-23T12:19:18.040Z,61.17
2022-09-23T12:22:31.592Z,59.40
2022-09-23T12:25:34.519Z,58.98
2022-09-23T12:28:23.854Z,57.81
2022-09-23T12:31:13.871Z,57.75
2022-09-23T12:34:01.586Z,55.27
2022-09-23T12:36:47.210Z,56.56
2022-09-23T12:39:38.544Z,56.00
2022-09-23T12:42:27.692Z,55.93
2022-09-23T12:45:27.698Z,55.62
2022-09-23T12:48:16.311Z,55.24
2022-09-23T12:51:13.640Z,54.89
2022-09-23T12:54:12.161Z,56.63
2022-09-23T12:56:58.866Z,55.58
2022-09-23T12:59:58.769Z,54.73
2022-09-23T13:02:55.296Z,54.09
2022-09-23T13:05:42.655Z,55.24
2022-09-23T13:08:28.806Z,55.28
2022-09-23T13:11:21.802Z,54.57
2022-09-23T13:14:07.855Z,53.59
2022-09-23T13:16:53.470Z,52.97
2022-09-23T13:19:45.373Z,51.57
2022-09-23T13:23:04.993Z,53.17
2022-09-23T13:25:52.812Z,54.11
2022-09-23T13:28:55.697Z,55.04
2022-09-23T13:31:42.973Z,53.01
2022-09-23T13:34:33.402Z,53.44
2022-09-23T13:37:32.286Z,52.52
2022-09-23T13:40:27.345Z,54.02
2022-09-23T13:43:22.351Z,53.06
2022-09-23T13:46:16.097Z,55.42
2022-09-23T13:49:01.494Z,55.80
2022-09-23T13:51:46.908Z,55.85
2022-09-23T13:54:35.607Z,55.20
2022-09-23T13:57:32.881Z,54.98
2022-09-23T14:00:20.849Z,56.30
2022-09-23T14:03:26.501Z,55.94
2022-09-23T14:06:14.240Z,55.73
2022-09-23T14:09:02.047Z,57.55
2022-09-23T14:11:47.001Z,56.74
2022-09-23T14:14:35.614Z,54.88
2022-09-23T14:17:22.295Z,56.66
2022-09-23T14:20:14.466Z,56.64
2022-09-23T14:23:13.506Z,56.64
2022-09-23T14:25:59.301Z,56.13
2022-09-23T14:28:46.199Z,56.52
2022-09-23T14:31:31.781Z,57.36
2022-09-23T14:34:55.398Z,59.64
2022-09-23T14:37:43.208Z,57.17
2022-09-23T14:40:31.685Z,58.37
2022-09-23T14:43:26.815Z,56.89
2022-09-23T14:46:32.769Z,56.52
2022-09-23T14:49:17.802Z,57.53
2022-09-23T14:52:06.177Z,59.39
2022-09-23T14:54:51.133Z,58.15
2022-09-23T14:57:38.153Z,57.51
2022-09-23T15:00:23.423Z,57.96
2022-09-23T15:03:16.316Z,57.16
2022-09-23T15:06:08.804Z,58.50
2022-09-23T15:08:55.804Z,57.43
2022-09-23T15:11:41.276Z,59.00
2022-09-23T15:14:44.867Z,57.82
2022-09-23T15:17:34.661Z,57.59
2022-09-23T15:20:23.996Z,58.08
2022-09-23T15:23:40.847Z,57.42
2022-09-23T15:26:44.994Z,57.23
2022-09-23T15:29:29.689Z,57.95
2022-09-23T15:32:14.680Z,56.97
2022-09-23T15:35:00.238Z,57.50
2022-09-23T15:37:47.542Z,57.20
2022-09-23T15:40:35.005Z,57.30
2022-09-23T15:43:22.536Z,57.13
2022-09-23T15:46:19.123Z,57.53
2022-09-23T15:49:10.104Z,57.78
2022-09-23T15:51:59.491Z,58.52
2022-09-23T15:54:44.639Z,60.72
2022-09-23T15:57:30.294Z,59.96
2022-09-23T16:00:16.143Z,59.00
2022-09-23T16:03:01.316Z,58.55
2022-09-23T16:05:48.011Z,58.17
2022-09-23T16:08:33.447Z,58.65
2022-09-23T16:11:26.252Z,58.99
2022-09-23T16:14:18.891Z,60.97
2022-09-23T16:17:03.935Z,66.01
2022-09-23T16:19:48.959Z,68.42
2022-09-23T16:22:33.913Z,68.25
2022-09-23T16:25:19.603Z,68.71
2022-09-23T16:28:05.327Z,69.16
2022-09-23T16:30:50.504Z,69.29
2022-09-23T16:33:35.624Z,65.35
2022-09-23T16:36:22.972Z,66.97
2022-09-23T16:39:11.679Z,69.77
2022-09-23T16:41:57.213Z,72.47
2022-09-23T16:44:42.421Z,71.83
2022-09-23T16:47:27.835Z,71.82
2022-09-23T16:50:15.409Z,71.12
2022-09-23T16:53:00.560Z,70.90
2022-09-23T16:55:45.458Z,73.55
2022-09-23T16:58:30.800Z,76.39
2022-09-23T17:01:21.284Z,81.25
2022-09-23T17:04:07.330Z,83.09
2022-09-23T17:06:53.873Z,79.35
2022-09-23T17:09:38.918Z,78.05
2022-09-23T17:12:29.145Z,75.68
2022-09-23T17:15:14.406Z,74.58
2022-09-23T17:17:59.292Z,73.42
2022-09-23T17:20:44.153Z,73.66
2022-09-23T17:23:30.281Z,73.39
2022-09-23T17:26:15.534Z,77.01
2022-09-23T17:29:00.798Z,78.57
2022-09-23T17:31:46.008Z,80.08
2022-09-23T17:34:31.381Z,79.24
2022-09-23T17:37:16.781Z,77.33
2022-09-23T17:40:01.946Z,77.04
2022-09-23T17:42:47.092Z,81.66
2022-09-23T17:45:32.089Z,82.33
2022-09-23T17:48:17.634Z,84.19
2022-09-23T17:51:05.938Z,88.07
2022-09-23T17:53:51.274Z,89.44
2022-09-23T17:56:36.293Z,85.82
2022-09-23T17:59:21.852Z,85.00
2022-09-23T18:02:07.092Z,85.04
2022-09-23T18:04:52.441Z,86.83
2022-09-23T18:07:37.466Z,88.51
2022-09-23T18:10:22.387Z,88.10
2022-09-23T18:13:07.627Z,89.56
2022-09-23T18:15:53.216Z,88.51
2022-09-23T18:18:38.532Z,88.98
2022-09-23T18:21:27.594Z,89.02
2022-09-23T18:27:17.881Z,84.23
2022-09-23T18:30:03.839Z,85.85
2022-09-23T18:32:48.709Z,86.53
2022-09-23T18:35:34.120Z,88.25
2022-09-23T18:38:19.212Z,90.50
2022-09-23T18:41:04.840Z,91.63
2022-09-23T18:43:50.275Z,90.16
2022-09-23T18:46:35.577Z,89.45
2022-09-23T18:49:20.873Z,90.26
2022-09-23T18:52:05.676Z,89.08
2022-09-23T18:54:55.074Z,88.64
2022-09-23T18:57:39.975Z,89.38
2022-09-23T19:00:25.066Z,87.42
2022-09-23T19:03:10.612Z,89.05
2022-09-23T19:06:04.862Z,88.24
2022-09-23T19:08:54.389Z,88.59
2022-09-23T19:11:39.747Z,86.93
2022-09-23T19:14:25.115Z,87.75
2022-09-23T19:17:10.568Z,88.51
2022-09-23T19:19:55.639Z,88.97
2022-09-23T19:22:45.518Z,89.65
2022-09-23T19:25:30.878Z,90.67
2022-09-23T19:28:15.870Z,92.27
2022-09-23T19:31:12.116Z,97.26
2022-09-23T19:34:00.075Z,97.90
2022-09-23T19:36:46.687Z,97.79
2022-09-23T19:39:31.990Z,98.91
2022-09-23T19:42:17.306Z,99.97
2022-09-23T19:45:02.299Z,100.00
2022-09-23T19:47:47.537Z,97.50
2022-09-23T19:50:32.672Z,94.67
2022-09-23T19:53:18.026Z,90.42
2022-09-23T19:56:03.500Z,93.71
2022-09-23T19:58:51.388Z,94.83
2022-09-23T20:01:36.846Z,91.87
2022-09-23T20:04:22.006Z,88.72
2022-09-23T20:07:07.013Z,85.64
2022-09-23T20:09:51.974Z,91.31
2022-09-23T20:12:37.438Z,96.86
2022-09-23T20:15:22.661Z,99.36
2022-09-23T20:18:07.405Z,100.00
2022-09-23T20:20:55.617Z,100.00
2022-09-23T20:23:42.091Z,100.00
2022-09-23T20:26:27.034Z,100.00
2022-09-23T20:29:12.065Z,100.00
2022-09-23T20:31:57.259Z,100.00
2022-09-23T20:34:42.145Z,100.00
2022-09-23T20:37:27.068Z,100.00
2022-09-23T20:40:12.070Z,100.00
2022-09-23T20:42:57.423Z,100.00
2022-09-23T20:45:50.023Z,100.00
2022-09-23T20:48:35.576Z,100.00
2022-09-23T20:51:20.825Z,100.00
2022-09-23T20:54:06.654Z,100.00
2022-09-23T20:56:51.970Z,100.00
2022-09-23T20:59:38.184Z,100.00
2022-09-23T21:02:23.567Z,100.00
2022-09-23T21:05:09.036Z,100.00
2022-09-23T21:07:54.189Z,100.00
2022-09-23T21:10:39.054Z,100.00
2022-09-23T21:13:25.043Z,100.00
2022-09-23T21:16:10.736Z,100.00
2022-09-23T21:18:57.799Z,100.00
2022-09-23T21:21:42.825Z,100.00
2022-09-23T21:25:12.118Z,100.00
2022-09-23T21:27:33.249Z,100.00
2022-09-23T21:30:18.526Z,100.00
2022-09-23T21:33:03.560Z,100.00
2022-09-23T21:35:48.450Z,100.00
2022-09-23T21:38:37.420Z,100.00
2022-09-23T21:41:22.285Z,100.00
2022-09-23T21:44:07.446Z,100.00
2022-09-23T21:46:54.204Z,100.00
2022-09-23T21:49:39.361Z,100.00
2022-09-23T21:52:24.479Z,100.00
2022-09-23T21:55:09.632Z,100.00
2022-09-23T21:57:55.136Z,100.00
2022-09-23T22:00:40.545Z,100.00
2022-09-23T22:03:25.863Z,100.00
2022-09-23T22:06:17.126Z,100.00
2022-09-23T22:09:06.155Z,100.00
2022-09-23T22:11:51.976Z,100.00
2022-09-23T22:14:38.109Z,100.00
2022-09-23T22:17:23.126Z,100.00
2022-09-23T22:20:08.329Z,100.00
2022-09-23T22:22:54.405Z,100.00
2022-09-23T22:25:39.663Z,100.00
2022-09-23T22:28:24.629Z,100.00
2022-09-23T22:31:09.718Z,100.00
2022-09-23T22:33:54.696Z,100.00
2022-09-23T22:36:39.850Z,100.00
2022-09-23T22:39:26.128Z,100.00
2022-09-23T22:42:12.254Z,100.00
2022-09-23T22:44:57.329Z,100.00
2022-09-23T22:47:42.942Z,100.00
2022-09-23T22:50:28.271Z,100.00
2022-09-23T22:53:13.162Z,100.00
2022-09-23T22:55:59.124Z,100.00
2022-09-23T22:58:44.243Z,100.00
2022-09-23T23:01:30.495Z,100.00
2022-09-23T23:04:15.577Z,100.00
2022-09-23T23:07:00.812Z,100.00
2022-09-23T23:09:47.406Z,100.00
2022-09-23T23:12:32.615Z,100.00
2022-09-23T23:15:17.631Z,100.00
2022-09-23T23:18:02.705Z,100.00
2022-09-23T23:20:47.514Z,100.00
2022-09-23T23:23:36.697Z,100.00
2022-09-23T23:26:24.041Z,100.00
2022-09-23T23:29:11.163Z,100.00
2022-09-23T23:31:56.359Z,100.00
2022-09-23T23:34:41.284Z,100.00
2022-09-23T23:37:29.021Z,100.00
2022-09-23T23:40:13.924Z,100.00
2022-09-23T23:42:59.301Z,100.00
2022-09-23T23:45:44.196Z,100.00
2022-09-23T23:48:29.268Z,100.00
2022-09-23T23:51:15.691Z,100.00
2022-09-23T23:54:00.883Z,100.00
2022-09-23T23:56:46.206Z,100.00
2022-09-23T23:59:31.063Z,100.00
